createdAt,value
2018-04-18T00:00:30.313Z,22.50
2018-04-18T00:01:05.869Z,22.20
2018-04-18T00:01:41.260Z,21.80
2018-04-18T00:02:17.698Z,21.80
2018-04-18T00:02:52.698Z,21.90
2018-04-18T00:03:28.006Z,20.30
2018-04-18T00:04:03.592Z,21.10
2018-04-18T00:04:39.663Z,20.90
2018-04-18T00:05:15.723Z,20.80
2018-04-18T00:05:52.220Z,22.10
2018-04-18T00:06:27.296Z,21.90
2018-04-18T00:07:02.613Z,21.50
2018-04-18T00:07:37.889Z,22.90
2018-04-18T00:08:13.203Z,23.20
2018-04-18T00:08:49.115Z,23.10
2018-04-18T00:09:24.724Z,23.00
2018-04-18T00:10:00.224Z,22.30
2018-04-18T00:10:35.861Z,22.30
2018-04-18T00:11:12.613Z,22.00
2018-04-18T00:11:48.352Z,22.00
2018-04-18T00:12:23.930Z,23.20
2018-04-18T00:12:59.564Z,23.70
2018-04-18T00:13:34.648Z,24.20
2018-04-18T00:14:09.559Z,23.70
2018-04-18T00:14:44.746Z,25.60
2018-04-18T00:15:20.387Z,25.50
2018-04-18T00:15:56.566Z,25.30
2018-04-18T00:16:32.083Z,25.30
2018-04-18T00:17:07.883Z,24.20
2018-04-18T00:17:44.191Z,24.10
2018-04-18T00:18:19.786Z,24.40
2018-04-18T00:18:55.440Z,25.60
2018-04-18T00:19:30.825Z,25.50
2018-04-18T00:20:06.036Z,24.40
2018-04-18T00:20:43.559Z,24.60
2018-04-18T00:21:19.184Z,26.90
2018-04-18T00:21:54.934Z,27.90
2018-04-18T00:22:30.458Z,26.30
2018-04-18T00:23:05.959Z,25.30
2018-04-18T00:23:41.692Z,25.70
2018-04-18T00:24:17.164Z,27.20
2018-04-18T00:24:52.570Z,27.60
2018-04-18T00:25:28.200Z,25.80
2018-04-18T00:26:03.539Z,26.90
2018-04-18T00:26:39.516Z,28.30
2018-04-18T00:27:15.018Z,28.50
2018-04-18T00:27:50.394Z,28.20
2018-04-18T00:28:25.599Z,29.30
2018-04-18T00:29:00.782Z,29.40
2018-04-18T00:29:36.104Z,28.90
2018-04-18T00:30:11.714Z,28.60
2018-04-18T00:30:46.929Z,29.30
2018-04-18T00:31:22.280Z,28.30
2018-04-18T00:31:57.501Z,29.00
2018-04-18T00:32:32.720Z,29.00
2018-04-18T00:33:08.154Z,28.20
2018-04-18T00:33:45.388Z,26.90
2018-04-18T00:34:20.727Z,25.70
2018-04-18T00:34:56.260Z,23.80
2018-04-18T00:35:31.381Z,23.60
2018-04-18T00:36:07.088Z,24.10
2018-04-18T00:36:42.437Z,23.50
2018-04-18T00:37:17.974Z,22.60
2018-04-18T00:37:53.211Z,24.00
2018-04-18T00:38:28.314Z,26.20
2018-04-18T00:39:03.852Z,27.60
2018-04-18T00:39:39.536Z,27.30
2018-04-18T00:40:14.671Z,26.60
2018-04-18T00:40:49.757Z,26.90
2018-04-18T00:41:25.409Z,26.20
2018-04-18T00:42:00.881Z,25.70
2018-04-18T00:42:36.921Z,26.30
2018-04-18T00:43:12.029Z,25.60
2018-04-18T00:43:47.475Z,25.00
2018-04-18T00:44:22.961Z,25.10
2018-04-18T00:44:58.193Z,25.10
2018-04-18T00:45:33.590Z,24.00
2018-04-18T00:46:09.093Z,24.30
2018-04-18T00:46:44.340Z,24.70
2018-04-18T00:47:19.575Z,23.20
2018-04-18T00:47:54.969Z,23.20
2018-04-18T00:48:30.199Z,23.50
2018-04-18T00:49:05.409Z,24.80
2018-04-18T00:49:40.766Z,24.20
2018-04-18T00:50:16.035Z,24.50
2018-04-18T00:50:54.153Z,24.00
2018-04-18T00:51:29.248Z,23.80
2018-04-18T00:52:04.738Z,23.70
2018-04-18T00:52:40.341Z,24.00
2018-04-18T00:53:15.790Z,24.60
2018-04-18T00:53:51.090Z,24.60
2018-04-18T00:54:26.314Z,24.50
2018-04-18T00:55:01.707Z,23.80
2018-04-18T00:55:37.534Z,23.50
2018-04-18T00:56:12.819Z,22.80
2018-04-18T00:56:48.284Z,22.90
2018-04-18T00:57:23.824Z,23.10
2018-04-18T00:57:59.245Z,23.90
2018-04-18T00:58:34.836Z,24.00
2018-04-18T00:59:10.191Z,23.10
2018-04-18T00:59:45.794Z,24.30
2018-04-18T01:00:21.227Z,24.40
2018-04-18T01:00:56.635Z,25.00
2018-04-18T01:01:32.307Z,26.10
2018-04-18T01:02:07.915Z,24.70
2018-04-18T01:02:43.162Z,23.80
2018-04-18T01:03:18.377Z,24.70
2018-04-18T01:03:54.025Z,26.00
2018-04-18T01:04:29.007Z,24.90
2018-04-18T01:05:04.419Z,26.60
2018-04-18T01:05:41.016Z,27.40
2018-04-18T01:06:16.342Z,26.00
2018-04-18T01:06:51.760Z,26.10
2018-04-18T01:07:27.187Z,25.50
2018-04-18T01:08:02.496Z,25.50
2018-04-18T01:08:37.915Z,26.50
2018-04-18T01:09:13.245Z,26.40
2018-04-18T01:09:48.585Z,25.70
2018-04-18T01:10:23.792Z,26.10
2018-04-18T01:11:02.401Z,24.50
2018-04-18T01:11:37.909Z,25.80
2018-04-18T01:12:13.134Z,28.50
2018-04-18T01:12:48.425Z,29.20
2018-04-18T01:13:23.881Z,28.10
2018-04-18T01:13:58.983Z,26.60
2018-04-18T01:14:34.619Z,27.60
2018-04-18T01:15:09.927Z,27.70
2018-04-18T01:15:45.468Z,28.10
2018-04-18T01:16:20.759Z,28.30
2018-04-18T01:16:56.200Z,27.60
2018-04-18T01:17:31.301Z,26.80
2018-04-18T01:18:06.447Z,25.20
2018-04-18T01:18:42.168Z,27.70
2018-04-18T01:19:17.880Z,29.20
2018-04-18T01:19:52.974Z,28.50
2018-04-18T01:20:28.416Z,27.70
2018-04-18T01:21:03.913Z,27.60
2018-04-18T01:21:39.747Z,28.20
2018-04-18T01:22:15.237Z,27.30
2018-04-18T01:22:50.591Z,26.20
2018-04-18T01:23:26.266Z,26.20
2018-04-18T01:24:01.843Z,26.40
2018-04-18T01:24:36.954Z,26.00
2018-04-18T01:25:12.472Z,25.30
2018-04-18T01:25:47.904Z,25.90
2018-04-18T01:26:23.252Z,27.80
2018-04-18T01:26:58.254Z,28.50
2018-04-18T01:27:33.485Z,29.30
2018-04-18T01:28:08.995Z,27.90
2018-04-18T01:28:44.843Z,26.80
2018-04-18T01:29:19.983Z,25.70
2018-04-18T01:29:55.618Z,26.70
2018-04-18T01:30:31.119Z,27.00
2018-04-18T01:31:06.666Z,26.90
2018-04-18T01:31:42.364Z,27.30
2018-04-18T01:32:17.691Z,27.30
2018-04-18T01:32:53.118Z,27.80
2018-04-18T01:33:28.428Z,26.50
2018-04-18T01:34:03.815Z,27.40
2018-04-18T01:34:39.566Z,26.60
2018-04-18T01:35:15.181Z,26.20
2018-04-18T01:35:50.314Z,25.50
2018-04-18T01:36:25.822Z,24.70
2018-04-18T01:37:01.284Z,24.70
2018-04-18T01:37:36.793Z,26.60
2018-04-18T01:38:12.114Z,26.10
2018-04-18T01:38:47.422Z,25.90
2018-04-18T01:39:22.856Z,25.60
2018-04-18T01:39:58.067Z,25.60
2018-04-18T01:40:33.627Z,25.70
2018-04-18T01:41:08.929Z,25.80
2018-04-18T01:41:44.463Z,26.10
2018-04-18T01:42:19.778Z,27.20
2018-04-18T01:42:54.995Z,27.90
2018-04-18T01:43:30.400Z,27.40
2018-04-18T01:44:05.702Z,27.00
2018-04-18T01:44:41.429Z,25.70
2018-04-18T01:45:16.801Z,26.70
2018-04-18T01:45:53.010Z,27.30
2018-04-18T01:46:28.133Z,27.50
2018-04-18T01:47:03.728Z,27.40
2018-04-18T01:47:39.039Z,26.50
2018-04-18T01:48:14.321Z,27.70
2018-04-18T01:48:49.563Z,27.10
2018-04-18T01:49:24.680Z,26.80
2018-04-18T01:50:00.283Z,26.70
2018-04-18T01:50:36.537Z,26.60
2018-04-18T01:51:13.201Z,26.70
2018-04-18T01:51:48.488Z,27.70
2018-04-18T01:52:24.096Z,26.60
2018-04-18T01:52:59.393Z,28.10
2018-04-18T01:53:35.122Z,28.70
2018-04-18T01:54:10.605Z,27.30
2018-04-18T01:54:46.048Z,27.10
2018-04-18T01:55:21.257Z,27.70
2018-04-18T01:55:56.715Z,28.10
2018-04-18T01:56:31.811Z,26.90
2018-04-18T01:57:07.022Z,26.90
2018-04-18T01:57:42.721Z,26.40
2018-04-18T01:58:18.263Z,27.20
2018-04-18T01:58:53.561Z,26.50
2018-04-18T01:59:29.286Z,25.60
2018-04-18T02:00:04.587Z,25.90
2018-04-18T02:00:41.423Z,25.60
2018-04-18T02:01:19.148Z,25.70
2018-04-18T02:01:54.686Z,26.00
2018-04-18T02:02:29.769Z,26.50
2018-04-18T02:03:05.012Z,26.10
2018-04-18T02:03:40.511Z,27.50
2018-04-18T02:04:15.948Z,28.70
2018-04-18T02:04:52.241Z,27.90
2018-04-18T02:05:29.808Z,28.50
2018-04-18T02:06:10.469Z,28.70
2018-04-18T02:06:45.776Z,28.40
2018-04-18T02:10:00.222Z,29.90
2018-04-18T02:10:36.028Z,28.40
2018-04-18T02:11:11.437Z,26.90
2018-04-18T02:11:46.815Z,28.50
2018-04-18T02:12:22.088Z,28.50
2018-04-18T02:12:57.701Z,31.50
2018-04-18T02:13:32.965Z,31.40
2018-04-18T02:14:08.357Z,30.20
2018-04-18T02:14:43.561Z,29.30
2018-04-18T02:15:18.640Z,29.60
2018-04-18T02:15:54.029Z,28.30
2018-04-18T02:16:29.631Z,28.90
2018-04-18T02:17:04.830Z,29.90
2018-04-18T02:17:40.667Z,29.70
2018-04-18T02:18:16.078Z,30.20
2018-04-18T02:18:51.880Z,30.40
2018-04-18T02:19:27.147Z,29.80
2018-04-18T02:20:02.645Z,29.40
2018-04-18T02:20:39.842Z,30.20
2018-04-18T02:21:15.741Z,30.40
2018-04-18T02:21:51.186Z,29.00
2018-04-18T02:22:26.691Z,28.20
2018-04-18T02:23:01.907Z,29.10
2018-04-18T02:23:37.290Z,30.30
2018-04-18T02:24:12.771Z,28.00
2018-04-18T02:24:48.270Z,27.40
2018-04-18T02:25:23.345Z,28.10
2018-04-18T02:25:58.656Z,29.20
2018-04-18T02:26:34.180Z,28.80
2018-04-18T02:27:09.420Z,29.20
2018-04-18T02:27:45.021Z,28.20
2018-04-18T02:28:20.691Z,28.50
2018-04-18T02:28:56.397Z,29.50
2018-04-18T02:29:32.022Z,28.90
2018-04-18T02:30:07.362Z,29.90
2018-04-18T02:30:42.751Z,30.30
2018-04-18T02:31:18.162Z,29.90
2018-04-18T02:31:53.515Z,30.50
2018-04-18T02:32:28.812Z,31.90
2018-04-18T02:33:04.109Z,31.60
2018-04-18T02:33:39.602Z,29.90
2018-04-18T02:34:14.796Z,28.90
2018-04-18T02:34:50.107Z,29.70
2018-04-18T02:35:25.681Z,30.10
2018-04-18T02:36:01.199Z,28.50
2018-04-18T02:36:36.785Z,28.50
2018-04-18T02:37:12.075Z,29.30
2018-04-18T02:37:47.523Z,31.40
2018-04-18T02:38:22.808Z,30.10
2018-04-18T02:38:58.696Z,29.40
2018-04-18T02:39:35.495Z,29.70
2018-04-18T02:40:11.131Z,30.90
2018-04-18T02:40:47.049Z,31.10
2018-04-18T02:41:23.440Z,32.40
2018-04-18T02:41:58.841Z,33.40
2018-04-18T02:42:34.111Z,31.70
2018-04-18T02:43:09.535Z,31.40
2018-04-18T02:43:47.325Z,31.50
2018-04-18T02:44:22.735Z,30.60
2018-04-18T02:44:58.128Z,30.20
2018-04-18T02:45:33.505Z,31.80
2018-04-18T02:46:08.909Z,32.00
2018-04-18T02:46:44.331Z,30.30
2018-04-18T02:47:19.600Z,29.10
2018-04-18T02:47:54.987Z,30.80
2018-04-18T02:48:30.409Z,32.80
2018-04-18T02:49:06.013Z,31.60
2018-04-18T02:49:41.092Z,32.40
2018-04-18T02:50:16.699Z,31.40
2018-04-18T02:50:52.114Z,31.70
2018-04-18T02:51:27.597Z,32.60
2018-04-18T02:52:03.115Z,33.80
2018-04-18T02:52:39.102Z,32.90
2018-04-18T02:53:14.300Z,32.70
2018-04-18T02:53:49.537Z,31.60
2018-04-18T02:54:25.002Z,34.00
2018-04-18T02:55:00.510Z,33.60
2018-04-18T02:55:37.014Z,33.50
2018-04-18T02:56:12.337Z,33.90
2018-04-18T02:56:48.755Z,31.80
2018-04-18T02:57:24.025Z,31.90
2018-04-18T02:57:59.153Z,31.90
2018-04-18T02:58:34.852Z,31.90
2018-04-18T02:59:10.408Z,32.60
2018-04-18T02:59:45.824Z,33.60
2018-04-18T03:00:21.418Z,33.50
2018-04-18T03:00:56.731Z,34.20
2018-04-18T03:01:32.103Z,33.40
2018-04-18T03:02:07.546Z,32.60
2018-04-18T03:02:42.815Z,32.60
2018-04-18T03:03:18.730Z,31.80
2018-04-18T03:03:53.752Z,32.10
2018-04-18T03:04:28.982Z,33.20
2018-04-18T03:05:04.303Z,34.30
2018-04-18T03:05:39.589Z,34.30
2018-04-18T03:06:15.099Z,35.80
2018-04-18T03:06:51.914Z,34.90
2018-04-18T03:07:27.137Z,33.40
2018-04-18T03:08:02.550Z,33.30
2018-04-18T03:08:37.750Z,32.80
2018-04-18T03:09:13.156Z,32.30
2018-04-18T03:09:48.609Z,33.50
2018-04-18T03:10:23.924Z,32.40
2018-04-18T03:11:00.668Z,31.90
2018-04-18T03:11:36.152Z,32.00
2018-04-18T03:12:11.756Z,32.70
2018-04-18T03:12:47.033Z,32.70
2018-04-18T03:13:22.347Z,33.50
2018-04-18T03:13:57.719Z,32.30
2018-04-18T03:14:33.330Z,32.10
2018-04-18T03:15:08.685Z,32.00
2018-04-18T03:15:44.573Z,32.40
2018-04-18T03:16:19.865Z,33.80
2018-04-18T03:16:55.845Z,34.40
2018-04-18T03:17:31.134Z,35.50
2018-04-18T03:18:06.296Z,34.20
2018-04-18T03:18:41.576Z,32.30
2018-04-18T03:19:16.976Z,31.50
2018-04-18T03:19:52.278Z,33.90
2018-04-18T03:20:27.518Z,33.70
2018-04-18T03:21:02.595Z,32.30
2018-04-18T03:21:37.997Z,34.10
2018-04-18T03:22:13.419Z,32.70
2018-04-18T03:22:48.710Z,33.40
2018-04-18T03:23:24.113Z,33.30
2018-04-18T03:23:59.603Z,33.90
2018-04-18T03:24:34.614Z,32.10
2018-04-18T03:25:13.355Z,32.30
2018-04-18T03:25:48.764Z,34.60
2018-04-18T03:26:24.165Z,34.40
2018-04-18T03:26:59.466Z,34.80
2018-04-18T03:27:34.684Z,35.30
2018-04-18T03:28:09.790Z,35.20
2018-04-18T03:28:47.081Z,33.60
2018-04-18T03:29:22.283Z,32.10
2018-04-18T03:29:57.669Z,33.20
2018-04-18T03:30:33.087Z,33.90
2018-04-18T03:31:10.035Z,34.00
2018-04-18T03:31:45.416Z,33.30
2018-04-18T03:32:20.727Z,33.50
2018-04-18T03:32:55.913Z,33.00
2018-04-18T03:33:31.223Z,34.90
2018-04-18T03:34:09.040Z,35.90
2018-04-18T03:34:44.135Z,34.80
2018-04-18T03:35:19.461Z,34.40
2018-04-18T03:35:58.005Z,34.30
2018-04-18T03:36:35.503Z,33.40
2018-04-18T03:37:10.708Z,34.30
2018-04-18T03:37:46.167Z,35.70
2018-04-18T03:38:24.001Z,36.30
2018-04-18T03:38:59.264Z,35.50
2018-04-18T03:39:35.289Z,34.80
2018-04-18T03:40:10.725Z,35.40
2018-04-18T03:40:47.044Z,36.80
2018-04-18T03:41:22.234Z,35.40
2018-04-18T03:41:57.460Z,35.70
2018-04-18T03:42:32.984Z,35.20
2018-04-18T03:43:08.400Z,35.00
2018-04-18T03:43:43.810Z,35.60
2018-04-18T03:44:19.099Z,34.00
2018-04-18T03:44:54.368Z,33.20
2018-04-18T03:45:31.677Z,34.00
2018-04-18T03:46:07.174Z,33.90
2018-04-18T03:46:42.877Z,32.90
2018-04-18T03:47:19.000Z,32.30
2018-04-18T03:47:55.973Z,32.60
2018-04-18T03:48:31.386Z,33.00
2018-04-18T03:49:06.788Z,32.50
2018-04-18T03:49:42.168Z,32.80
2018-04-18T03:50:17.674Z,34.10
2018-04-18T03:50:53.148Z,34.30
2018-04-18T03:51:28.761Z,34.40
2018-04-18T03:52:04.573Z,33.60
2018-04-18T03:52:39.975Z,34.80
2018-04-18T03:53:16.866Z,35.80
2018-04-18T03:53:52.188Z,35.60
2018-04-18T03:54:27.404Z,35.10
2018-04-18T03:55:02.806Z,35.90
2018-04-18T03:55:38.016Z,35.30
2018-04-18T03:56:16.534Z,36.10
2018-04-18T03:56:51.725Z,36.40
2018-04-18T03:57:27.070Z,36.20
2018-04-18T03:58:02.553Z,35.50
2018-04-18T03:58:40.868Z,35.80
2018-04-18T03:59:16.355Z,36.70
2018-04-18T03:59:51.851Z,35.40
2018-04-18T04:00:27.199Z,34.20
2018-04-18T04:01:02.366Z,36.40
2018-04-18T04:01:37.489Z,38.40
2018-04-18T04:02:13.900Z,36.50
2018-04-18T04:02:51.695Z,35.80
2018-04-18T04:03:27.549Z,36.00
2018-04-18T04:04:02.735Z,35.80
2018-04-18T04:04:38.741Z,36.80
2018-04-18T04:05:14.141Z,36.80
2018-04-18T04:05:49.546Z,36.30
2018-04-18T04:06:24.856Z,35.50
2018-04-18T04:07:00.032Z,34.70
2018-04-18T04:07:35.736Z,35.10
2018-04-18T04:08:11.124Z,36.80
2018-04-18T04:08:46.354Z,35.60
2018-04-18T04:09:21.623Z,34.90
2018-04-18T04:09:56.926Z,34.50
2018-04-18T04:10:32.360Z,34.40
2018-04-18T04:11:10.026Z,34.50
2018-04-18T04:11:45.243Z,33.90
2018-04-18T04:12:20.922Z,33.10
2018-04-18T04:12:58.326Z,32.00
2018-04-18T04:13:33.751Z,33.20
2018-04-18T04:14:09.069Z,34.50
2018-04-18T04:14:44.275Z,33.50
2018-04-18T04:15:19.669Z,33.80
2018-04-18T04:15:55.159Z,35.30
2018-04-18T04:16:30.525Z,34.50
2018-04-18T04:17:05.484Z,33.40
2018-04-18T04:17:41.308Z,33.70
2018-04-18T04:18:16.692Z,32.60
2018-04-18T04:18:51.893Z,32.50
2018-04-18T04:19:27.342Z,33.90
2018-04-18T04:20:02.619Z,33.20
2018-04-18T04:20:38.839Z,32.50
2018-04-18T04:21:14.117Z,34.10
2018-04-18T04:21:50.007Z,35.20
2018-04-18T04:22:25.428Z,35.60
2018-04-18T04:23:01.007Z,34.90
2018-04-18T04:23:36.348Z,35.80
2018-04-18T04:24:11.616Z,35.30
2018-04-18T04:24:47.000Z,34.10
2018-04-18T04:25:22.383Z,34.20
2018-04-18T04:25:57.678Z,33.30
2018-04-18T04:26:33.005Z,35.10
2018-04-18T04:27:08.395Z,36.80
2018-04-18T04:27:44.403Z,35.00
2018-04-18T04:28:19.869Z,37.20
2018-04-18T04:28:55.353Z,36.90
2018-04-18T04:29:30.756Z,34.60
2018-04-18T04:30:06.198Z,36.30
2018-04-18T04:30:42.305Z,36.20
2018-04-18T04:31:17.704Z,36.00
2018-04-18T04:31:52.804Z,34.50
2018-04-18T04:32:28.296Z,34.70
2018-04-18T04:33:04.877Z,35.50
2018-04-18T04:33:40.095Z,38.20
2018-04-18T04:34:15.680Z,37.80
2018-04-18T04:34:50.677Z,36.80
2018-04-18T04:35:26.111Z,36.90
2018-04-18T04:36:01.491Z,38.40
2018-04-18T04:36:36.799Z,39.50
2018-04-18T04:37:12.193Z,38.00
2018-04-18T04:37:47.619Z,37.80
2018-04-18T04:38:23.015Z,38.10
2018-04-18T04:38:58.616Z,37.50
2018-04-18T04:39:33.861Z,38.00
2018-04-18T04:40:08.930Z,37.80
2018-04-18T04:40:44.363Z,36.80
2018-04-18T04:41:21.743Z,36.90
2018-04-18T04:41:57.256Z,35.40
2018-04-18T04:42:32.686Z,34.70
2018-04-18T04:43:08.058Z,33.90
2018-04-18T04:43:43.473Z,34.30
2018-04-18T04:44:18.875Z,37.80
2018-04-18T04:44:54.217Z,38.80
2018-04-18T04:45:29.370Z,39.70
2018-04-18T04:46:04.771Z,39.90
2018-04-18T04:46:40.173Z,39.60
2018-04-18T04:47:15.454Z,37.10
2018-04-18T04:47:50.557Z,35.80
2018-04-18T04:48:25.948Z,36.10
2018-04-18T04:49:01.230Z,36.80
2018-04-18T04:49:37.540Z,35.80
2018-04-18T04:50:12.729Z,36.80
2018-04-18T04:50:48.133Z,36.90
2018-04-18T04:51:23.667Z,35.50
2018-04-18T04:51:59.094Z,36.20
2018-04-18T04:52:34.806Z,35.30
2018-04-18T04:53:10.086Z,32.70
2018-04-18T04:53:46.833Z,34.00
2018-04-18T04:54:22.224Z,34.40
2018-04-18T04:54:57.716Z,34.10
2018-04-18T04:55:33.022Z,34.00
2018-04-18T04:56:08.406Z,33.40
2018-04-18T04:56:43.638Z,33.90
2018-04-18T04:57:19.044Z,34.10
2018-04-18T04:57:54.332Z,32.80
2018-04-18T04:58:29.823Z,32.80
2018-04-18T04:59:05.029Z,34.30
2018-04-18T04:59:40.235Z,34.80
2018-04-18T05:00:15.533Z,35.50
2018-04-18T05:00:51.159Z,35.70
2018-04-18T05:01:26.830Z,35.40
2018-04-18T05:02:02.381Z,33.00
2018-04-18T05:02:37.527Z,31.50
2018-04-18T05:03:12.986Z,34.00
2018-04-18T05:03:48.193Z,35.50
2018-04-18T05:04:23.373Z,35.50
2018-04-18T05:04:58.590Z,34.80
2018-04-18T05:05:33.797Z,35.00
2018-04-18T05:06:09.209Z,35.70
2018-04-18T05:06:45.642Z,35.40
2018-04-18T05:07:21.089Z,35.70
2018-04-18T05:07:56.690Z,34.90
2018-04-18T05:08:32.389Z,35.90
2018-04-18T05:09:07.820Z,36.30
2018-04-18T05:09:43.184Z,34.60
2018-04-18T05:10:18.547Z,34.80
2018-04-18T05:10:56.327Z,33.60
2018-04-18T05:11:31.645Z,35.30
2018-04-18T05:12:06.965Z,34.10
2018-04-18T05:12:42.600Z,33.80
2018-04-18T05:13:18.084Z,33.20
2018-04-18T05:13:53.507Z,32.60
2018-04-18T05:14:28.599Z,32.50
2018-04-18T05:15:04.447Z,31.80
2018-04-18T05:15:39.761Z,30.40
2018-04-18T05:16:15.052Z,30.00
2018-04-18T05:16:50.365Z,31.20
2018-04-18T05:17:25.560Z,30.40
2018-04-18T05:18:01.105Z,30.40
2018-04-18T05:18:36.891Z,29.40
2018-04-18T05:19:12.261Z,29.60
2018-04-18T05:19:47.680Z,30.20
2018-04-18T05:20:23.068Z,29.70
2018-04-18T05:21:00.682Z,29.60
2018-04-18T05:21:36.200Z,29.40
2018-04-18T05:22:11.384Z,30.10
2018-04-18T05:22:46.724Z,28.70
2018-04-18T05:23:21.739Z,27.60
2018-04-18T05:23:57.938Z,27.90
2018-04-18T05:24:33.024Z,28.40
2018-04-18T05:25:10.129Z,28.00
2018-04-18T05:25:45.640Z,28.40
2018-04-18T05:26:22.838Z,28.80
2018-04-18T05:26:58.173Z,29.00
2018-04-18T05:27:33.803Z,29.00
2018-04-18T05:28:09.159Z,27.70
2018-04-18T05:28:44.623Z,27.30
2018-04-18T05:29:19.900Z,27.70
2018-04-18T05:29:55.712Z,27.30
2018-04-18T05:30:31.009Z,26.70
2018-04-18T05:31:06.329Z,27.70
2018-04-18T05:31:41.771Z,29.00
2018-04-18T05:32:20.371Z,28.00
2018-04-18T05:32:56.293Z,27.90
2018-04-18T05:33:32.103Z,28.30
2018-04-18T05:34:07.346Z,28.50
2018-04-18T05:34:43.169Z,28.50
2018-04-18T05:35:18.543Z,27.90
2018-04-18T05:35:55.311Z,27.20
2018-04-18T05:36:30.731Z,28.50
2018-04-18T05:37:06.160Z,28.00
2018-04-18T05:37:41.586Z,27.90
2018-04-18T05:38:17.384Z,27.70
2018-04-18T05:38:52.811Z,27.40
2018-04-18T05:39:28.747Z,27.70
2018-04-18T05:40:04.361Z,28.30
2018-04-18T05:40:41.166Z,27.60
2018-04-18T05:41:18.041Z,28.00
2018-04-18T05:41:53.360Z,28.20
2018-04-18T05:42:31.626Z,29.00
2018-04-18T05:43:06.846Z,27.30
2018-04-18T05:43:43.017Z,27.70
2018-04-18T05:44:18.234Z,29.30
2018-04-18T05:44:53.774Z,28.90
2018-04-18T05:45:30.452Z,27.60
2018-04-18T05:46:07.360Z,27.60
2018-04-18T05:46:44.166Z,27.10
2018-04-18T05:47:19.597Z,26.50
2018-04-18T05:47:54.831Z,28.00
2018-04-18T05:48:30.031Z,27.40
2018-04-18T05:49:05.856Z,28.30
2018-04-18T05:49:41.051Z,28.10
2018-04-18T05:50:16.884Z,26.20
2018-04-18T05:50:52.275Z,26.90
2018-04-18T05:51:27.882Z,26.80
2018-04-18T05:52:03.414Z,27.20
2018-04-18T05:52:38.600Z,28.00
2018-04-18T05:53:13.816Z,27.60
2018-04-18T05:53:49.147Z,27.70
2018-04-18T05:54:24.237Z,28.60
2018-04-18T05:54:59.851Z,28.10
2018-04-18T05:55:34.960Z,27.90
2018-04-18T05:56:10.194Z,28.90
2018-04-18T05:56:45.729Z,28.00
2018-04-18T05:57:21.013Z,26.90
2018-04-18T05:57:56.426Z,26.40
2018-04-18T05:58:31.830Z,26.20
2018-04-18T05:59:07.357Z,25.20
2018-04-18T05:59:43.569Z,25.80
2018-04-18T06:00:19.075Z,26.40
2018-04-18T06:00:55.115Z,26.30
2018-04-18T06:01:30.302Z,26.60
2018-04-18T06:02:05.703Z,26.30
2018-04-18T06:02:41.320Z,28.40
2018-04-18T06:03:17.029Z,26.70
2018-04-18T06:03:52.538Z,24.10
2018-04-18T06:04:27.964Z,24.80
2018-04-18T06:05:06.363Z,26.20
2018-04-18T06:05:41.555Z,25.60
2018-04-18T06:06:18.466Z,26.40
2018-04-18T06:06:53.751Z,26.90
2018-04-18T06:07:29.251Z,27.00
2018-04-18T06:08:07.590Z,26.60
2018-04-18T06:08:42.590Z,27.50
2018-04-18T06:09:19.498Z,27.00
2018-04-18T06:09:54.895Z,25.50
2018-04-18T06:10:32.482Z,25.20
2018-04-18T06:11:07.825Z,27.00
2018-04-18T06:11:44.057Z,26.40
2018-04-18T06:12:19.370Z,25.80
2018-04-18T06:13:00.279Z,26.30
2018-04-18T06:13:37.363Z,26.30
2018-04-18T06:14:16.076Z,25.50
2018-04-18T06:14:54.131Z,24.90
2018-04-18T06:15:32.718Z,25.90
2018-04-18T06:16:07.931Z,25.80
2018-04-18T06:16:43.047Z,26.40
2018-04-18T06:17:22.067Z,27.10
2018-04-18T06:17:57.386Z,26.30
2018-04-18T06:18:36.377Z,25.70
2018-04-18T06:19:11.620Z,25.00
2018-04-18T06:19:46.928Z,24.90
2018-04-18T06:20:22.335Z,26.10
2018-04-18T06:20:59.775Z,26.70
2018-04-18T06:21:35.242Z,27.00
2018-04-18T06:22:12.246Z,27.10
2018-04-18T06:22:47.798Z,26.30
2018-04-18T06:23:22.988Z,26.30
2018-04-18T06:23:58.444Z,26.10
2018-04-18T06:24:33.778Z,26.00
2018-04-18T06:25:09.093Z,26.40
2018-04-18T06:25:47.620Z,26.00
2018-04-18T06:26:25.697Z,25.80
2018-04-18T06:27:04.751Z,25.70
2018-04-18T06:27:42.247Z,25.20
2018-04-18T06:28:17.612Z,25.20
2018-04-18T06:28:52.938Z,25.00
2018-04-18T06:29:28.444Z,26.50
2018-04-18T06:30:03.858Z,26.70
2018-04-18T06:30:42.260Z,26.80
2018-04-18T06:31:20.061Z,26.70
2018-04-18T06:31:55.775Z,26.60
2018-04-18T06:32:32.962Z,25.80
2018-04-18T06:33:08.173Z,25.70
2018-04-18T06:33:45.993Z,26.50
2018-04-18T06:34:21.327Z,25.90
2018-04-18T06:34:56.848Z,26.00
2018-04-18T06:35:32.370Z,26.70
2018-04-18T06:36:11.299Z,26.70
2018-04-18T06:36:46.471Z,25.70
2018-04-18T06:37:21.893Z,26.80
2018-04-18T06:37:57.396Z,26.60
2018-04-18T06:38:32.843Z,26.40
2018-04-18T06:39:08.208Z,25.70
2018-04-18T06:39:46.542Z,26.90
2018-04-18T06:40:22.598Z,26.90
2018-04-18T06:40:58.091Z,25.60
2018-04-18T06:41:35.191Z,25.80
2018-04-18T06:42:10.907Z,25.50
2018-04-18T06:42:46.505Z,26.40
2018-04-18T06:43:22.127Z,26.20
2018-04-18T06:43:57.222Z,25.00
2018-04-18T06:44:32.873Z,26.70
2018-04-18T06:45:08.329Z,26.60
2018-04-18T06:45:44.049Z,26.60
2018-04-18T06:46:20.900Z,27.10
2018-04-18T06:46:56.212Z,27.70
2018-04-18T06:47:31.492Z,27.80
2018-04-18T06:48:06.915Z,27.80
2018-04-18T06:48:42.313Z,28.50
2018-04-18T06:49:17.617Z,28.20
2018-04-18T06:49:53.435Z,28.00
2018-04-18T06:50:28.754Z,27.30
2018-04-18T06:51:07.271Z,27.60
2018-04-18T06:51:42.477Z,28.70
2018-04-18T06:52:17.796Z,28.30
2018-04-18T06:52:53.700Z,28.80
2018-04-18T06:53:28.836Z,26.70
2018-04-18T06:54:04.276Z,26.20
2018-04-18T06:54:39.568Z,25.80
2018-04-18T06:55:15.003Z,27.30
2018-04-18T06:55:50.207Z,28.90
2018-04-18T06:56:28.514Z,27.50
2018-04-18T06:57:04.755Z,27.90
2018-04-18T06:57:39.893Z,28.60
2018-04-18T06:58:15.222Z,29.60
2018-04-18T06:58:50.823Z,28.70
2018-04-18T06:59:26.328Z,29.10
2018-04-18T07:00:01.823Z,29.70
2018-04-18T07:02:38.302Z,30.60
2018-04-18T07:03:13.869Z,29.80
2018-04-18T07:03:51.988Z,29.10
2018-04-18T07:04:27.085Z,29.80
2018-04-18T07:05:05.504Z,28.80
2018-04-18T07:05:41.633Z,29.00
2018-04-18T07:06:17.317Z,28.70
2018-04-18T07:06:52.621Z,28.70
2018-04-18T07:07:27.964Z,28.50
2018-04-18T07:08:03.735Z,28.70
2018-04-18T07:08:40.549Z,29.40
2018-04-18T07:09:15.967Z,28.70
2018-04-18T07:09:51.193Z,27.70
2018-04-18T07:10:26.609Z,27.60
2018-04-18T07:11:05.095Z,28.90
2018-04-18T07:11:40.572Z,29.50
2018-04-18T07:12:18.091Z,28.10
2018-04-18T07:12:53.453Z,28.60
2018-04-18T07:13:30.285Z,28.70
2018-04-18T07:14:05.779Z,28.10
2018-04-18T07:14:40.882Z,28.60
2018-04-18T07:15:16.190Z,29.00
2018-04-18T07:15:53.977Z,28.90
2018-04-18T07:16:30.402Z,28.20
2018-04-18T07:17:05.723Z,28.00
2018-04-18T07:17:42.020Z,27.80
2018-04-18T07:18:17.543Z,28.70
2018-04-18T07:18:53.053Z,27.50
2018-04-18T07:19:28.467Z,27.60
2018-04-18T07:20:03.897Z,26.70
2018-04-18T07:20:41.488Z,27.80
2018-04-18T07:21:17.094Z,26.70
2018-04-18T07:21:52.306Z,27.50
2018-04-18T07:22:27.843Z,27.40
2018-04-18T07:23:04.225Z,27.30
2018-04-18T07:23:42.224Z,27.30
2018-04-18T07:24:17.678Z,26.90
2018-04-18T07:24:52.867Z,27.40
2018-04-18T07:25:31.375Z,28.40
2018-04-18T07:26:06.659Z,28.00
2018-04-18T07:26:42.204Z,27.90
2018-04-18T07:27:17.344Z,27.60
2018-04-18T07:27:52.449Z,26.80
2018-04-18T07:28:27.678Z,26.70
2018-04-18T07:29:03.179Z,27.40
2018-04-18T07:29:39.107Z,26.90
2018-04-18T07:30:14.315Z,26.60
2018-04-18T07:30:49.889Z,27.30
2018-04-18T07:31:25.417Z,25.80
2018-04-18T07:32:01.008Z,25.30
2018-04-18T07:32:36.263Z,27.30
2018-04-18T07:33:11.756Z,25.90
2018-04-18T07:33:47.201Z,27.10
2018-04-18T07:34:22.445Z,27.10
2018-04-18T07:34:57.513Z,26.30
2018-04-18T07:35:32.824Z,26.00
2018-04-18T07:36:09.026Z,25.60
2018-04-18T07:36:44.572Z,25.20
2018-04-18T07:37:20.288Z,24.20
2018-04-18T07:37:56.627Z,24.50
2018-04-18T07:38:32.680Z,24.20
2018-04-18T07:39:07.876Z,23.90
2018-04-18T07:39:43.272Z,24.80
2018-04-18T07:40:18.469Z,23.90
2018-04-18T07:40:53.970Z,23.80
2018-04-18T07:41:29.629Z,23.40
2018-04-18T07:42:05.021Z,24.40
2018-04-18T07:42:42.431Z,24.50
2018-04-18T07:43:18.069Z,22.40
2018-04-18T07:43:55.055Z,22.60
2018-04-18T07:44:30.397Z,25.00